Time;durP1;ratioP1;P1;durP2;ratioP2;P2;SDS_P1;SDS_P2;PMS_P1;PMS_P2;Temp;Humidity;BMP_temperature;BMP_pressure;BME280_temperature;BME280_humidity;BME280_pressure;Samples;Min_cycle;Max_cycle;Signal;HPM_P1;HPM_P2
2023/08/31 00:01:53;;;;;;;;;;;;;;;27.44;43.51;93834.03;5041247;28;9783;-62
2023/08/31 00:04:24;;;;;;;;;;;;;;;27.44;44.08;93834.03;5067046;28;6995;-62
2023/08/31 00:06:58;;;;;;;;;;;;;;;27.45;43.66;93843.78;5063966;28;7208;-62
2023/08/31 00:09:25;;;;;;;;;;;;;;;27.46;43.52;93848.03;5047119;28;7617;-62
2023/08/31 00:12:03;;;;;;;;;;;;;;;27.45;43.30;93843.78;5057618;28;7615;-62
2023/08/31 00:14:33;;;;;;;;;;;;;;;27.40;43.59;93839.88;5061763;28;7074;-61
2023/08/31 00:17:03;;;;;;;;;;;;;;;27.42;43.37;93844.88;5052894;28;7488;-61
2023/08/31 00:19:44;;;;;;;;;;;;;;;27.42;43.68;93845.63;5041461;28;7242;-61
2023/08/31 00:22:36;;;;;;;;;;;;;;;27.44;43.64;93840.28;5054104;28;8581;-61
2023/08/31 00:25:13;;;;;;;;;;;;;;;27.41;43.57;93840.59;5012853;28;9207;-62
2023/08/31 00:28:18;;;;;;;;;;;;;;;27.42;43.71;93845.63;5015118;28;7238;-62
2023/08/31 00:31:15;;;;;;;;;;;;;;;27.41;43.39;93846.13;5005706;28;7235;-62
2023/08/31 00:33:48;;;;;;;;;;;;;;;27.39;44.08;93837.63;4952392;28;7062;-62
2023/08/31 00:36:23;;;;;;;;;;;;;;;27.40;43.86;93841.91;4956578;28;7200;-57
2023/08/31 00:38:51;;;;;;;;;;;;;;;27.39;43.83;93838.38;4951951;28;9577;-57
2023/08/31 00:41:25;;;;;;;;;;;;;;;27.40;43.28;93845.41;4935228;28;9255;-57
2023/08/31 00:43:51;;;;;;;;;;;;;;;27.39;43.82;93843.16;4931975;28;9123;-57
2023/08/31 00:46:17;;;;;;;;;;;;;;;27.39;43.82;93841.16;4968046;28;9192;-57
2023/08/31 00:48:43;;;;;;;;;;;;;;;27.39;43.72;93843.16;4921537;29;7348;-57
2023/08/31 00:51:11;;;;;;;;;;;;;;;27.38;43.06;93836.88;4950527;28;8827;-57
2023/08/31 00:53:58;;;;;;;;;;;;;;;27.39;43.29;93829.34;4953858;28;8801;-57
2023/08/31 00:57:01;;;;;;;;;;;;;;;27.39;43.39;93832.13;4955424;28;6983;-57
2023/08/31 00:59:29;;;;;;;;;;;;;;;27.37;43.87;93827.13;4920709;29;8078;-57
2023/08/31 01:02:40;;;;;;;;;;;;;;;27.39;43.55;93832.88;4919242;29;7064;-57
2023/08/31 01:05:51;;;;;;;;;;;;;;;27.39;43.51;93832.13;4908695;29;7257;-56
2023/08/31 01:08:39;;;;;;;;;;;;;;;27.37;43.51;93840.94;4914827;29;8880;-56
2023/08/31 01:11:43;;;;;;;;;;;;;;;27.38;43.64;93842.41;4953479;28;9022;-57
2023/08/31 01:14:24;;;;;;;;;;;;;;;27.39;43.31;93837.63;4972488;28;9382;-57
2023/08/31 01:17:14;;;;;;;;;;;;;;;27.40;43.68;93833.63;4956371;28;7458;-57
2023/08/31 01:20:06;;;;;;;;;;;;;;;27.44;43.28;93837.53;4967974;28;7308;-57
2023/08/31 01:23:10;;;;;;;;;;;;;;;27.44;43.47;93837.53;4972053;28;7268;-57
2023/08/31 01:25:48;;;;;;;;;;;;;;;27.47;43.61;93832.97;4952835;28;7155;-56
2023/08/31 01:28:22;;;;;;;;;;;;;;;27.45;43.16;93841.75;4952522;28;6979;-57
2023/08/31 01:30:50;;;;;;;;;;;;;;;27.44;43.29;93840.28;4953206;29;8862;-56
2023/08/31 01:33:20;;;;;;;;;;;;;;;27.47;43.15;93857.81;4966181;28;7062;-57
2023/08/31 01:36:26;;;;;;;;;;;;;;;27.48;43.05;93856.53;4989416;28;7261;-57
2023/08/31 01:39:29;;;;;;;;;;;;;;;27.48;42.97;93851.00;4963951;28;6999;-57
2023/08/31 01:42:05;;;;;;;;;;;;;;;27.49;43.33;93846.97;4994525;28;8715;-56
2023/08/31 01:44:35;;;;;;;;;;;;;;;27.44;43.41;93837.53;4988954;28;7180;-61
2023/08/31 01:47:05;;;;;;;;;;;;;;;27.47;43.23;93839.19;4989124;28;7631;-61
2023/08/31 01:49:45;;;;;;;;;;;;;;;27.46;42.82;93846.03;4980322;28;7824;-60
2023/08/31 01:52:30;;;;;;;;;;;;;;;27.46;43.11;93843.25;4970119;28;10049;-61
2023/08/31 01:55:05;;;;;;;;;;;;;;;27.44;43.27;93847.84;4974395;28;7158;-61
2023/08/31 01:57:38;;;;;;;;;;;;;;;27.47;43.26;93852.28;4964644;28;7249;-61
2023/08/31 02:00:09;;;;;;;;;;;;;;;27.50;43.18;93849.19;4983788;28;7238;-60
2023/08/31 02:02:54;;;;;;;;;;;;;;;27.47;42.82;93855.06;5055177;28;7106;-61
2023/08/31 02:05:48;;;;;;;;;;;;;;;27.49;43.00;93858.75;5053820;28;9090;-60
2023/08/31 02:08:17;;;;;;;;;;;;;;;27.49;43.40;93860.78;5044969;28;8448;-60
2023/08/31 02:11:03;;;;;;;;;;;;;;;27.48;42.94;93859.28;5042031;28;7249;-61
2023/08/31 02:13:41;;;;;;;;;;;;;;;27.49;43.13;93869.06;5048759;28;9181;-60
2023/08/31 02:16:15;;;;;;;;;;;;;;;27.47;42.96;93869.59;5050044;28;9105;-60
2023/08/31 02:18:46;;;;;;;;;;;;;;;27.47;43.03;93868.88;5045844;28;7561;-60
2023/08/31 02:21:16;;;;;;;;;;;;;;;27.45;43.21;93877.66;5041638;28;8754;-60
2023/08/31 02:23:49;;;;;;;;;;;;;;;27.46;43.03;93879.16;5056587;28;7226;-61
2023/08/31 02:26:15;;;;;;;;;;;;;;;27.47;42.87;93882.69;5046156;28;8531;-61
2023/08/31 02:28:47;;;;;;;;;;;;;;;27.45;42.88;93880.44;5050425;28;6927;-61
2023/08/31 02:31:19;;;;;;;;;;;;;;;27.44;43.25;93873.44;5055689;28;7243;-60
2023/08/31 02:33:49;;;;;;;;;;;;;;;27.44;43.67;93884.47;5057526;28;8673;-60
2023/08/31 02:36:24;;;;;;;;;;;;;;;27.42;42.91;93878.00;5054768;28;9088;-61
2023/08/31 02:38:53;;;;;;;;;;;;;;;27.41;43.03;93874.50;5056842;28;7632;-61
2023/08/31 02:41:49;;;;;;;;;;;;;;;27.44;42.93;93890.00;5073671;28;7412;-61
2023/08/31 02:44:21;;;;;;;;;;;;;;;27.40;43.04;93880.56;5038420;28;7074;-61
2023/08/31 02:47:06;;;;;;;;;;;;;;;27.40;43.17;93889.59;5060678;28;9026;-61
2023/08/31 02:49:54;;;;;;;;;;;;;;;27.40;43.10;93883.31;5053571;28;10077;-61
2023/08/31 02:53:03;;;;;;;;;;;;;;;27.40;42.93;93883.31;5068255;28;7243;-60
2023/08/31 02:55:38;;;;;;;;;;;;;;;27.38;43.17;93878.31;5044687;28;9253;-62
2023/08/31 02:58:25;;;;;;;;;;;;;;;27.39;43.66;93877.06;5048182;28;7426;-62
2023/08/31 03:01:05;;;;;;;;;;;;;;;27.38;43.27;93880.34;5049761;28;7672;-62
2023/08/31 03:03:45;;;;;;;;;;;;;;;27.40;42.94;93880.56;5051397;28;9096;-62
2023/08/31 03:06:59;;;;;;;;;;;;;;;27.39;43.05;93874.28;5059730;28;7225;-62
2023/08/31 03:09:40;;;;;;;;;;;;;;;27.36;42.95;93875.34;4996596;28;7322;-62
2023/08/31 03:12:06;;;;;;;;;;;;;;;27.36;43.09;93883.63;4994866;28;7304;-62
2023/08/31 03:14:33;;;;;;;;;;;;;;;27.35;43.31;93875.88;5011644;28;7678;-62
2023/08/31 03:16:59;;;;;;;;;;;;;;;27.39;43.20;93879.06;5002162;28;7135;-62
2023/08/31 03:19:30;;;;;;;;;;;;;;;27.36;42.93;93883.63;5012081;28;7246;-62
2023/08/31 03:22:07;;;;;;;;;;;;;;;27.39;43.33;93876.31;4991394;28;7249;-62
2023/08/31 03:24:33;;;;;;;;;;;;;;;27.38;43.16;93875.56;5006091;28;9360;-61
2023/08/31 03:27:07;;;;;;;;;;;;;;;27.38;43.33;93881.06;4997530;28;7271;-62
2023/08/31 03:29:48;;;;;;;;;;;;;;;27.39;43.10;93881.81;5000452;28;9089;-62
2023/08/31 03:32:14;;;;;;;;;;;;;;;27.37;42.87;93882.38;4994939;28;7293;-62
2023/08/31 03:34:42;;;;;;;;;;;;;;;27.38;43.09;93881.06;4999747;28;7088;-62
2023/08/31 03:37:09;;;;;;;;;;;;;;;27.36;42.65;93883.63;5010636;28;7333;-62
2023/08/31 03:39:35;;;;;;;;;;;;;;;27.37;43.19;93884.38;5008898;28;7157;-62
2023/08/31 03:42:02;;;;;;;;;;;;;;;27.37;42.93;93884.38;5000723;28;7446;-61
2023/08/31 03:44:58;;;;;;;;;;;;;;;27.37;43.06;93890.66;5003338;28;9096;-61
2023/08/31 03:47:41;;;;;;;;;;;;;;;27.36;42.72;93886.41;5001558;28;7426;-62
2023/08/31 03:50:36;;;;;;;;;;;;;;;27.36;43.07;93891.91;4985299;28;7061;-62
2023/08/31 03:53:03;;;;;;;;;;;;;;;27.35;43.07;93892.44;5007311;28;6987;-62
2023/08/31 03:55:29;;;;;;;;;;;;;;;27.36;42.96;93905.00;5010951;28;7081;-62
2023/08/31 03:58:05;;;;;;;;;;;;;;;27.33;43.11;93901.25;5000027;28;9372;-62
2023/08/31 04:00:52;;;;;;;;;;;;;;;27.36;43.15;93899.47;4997975;28;7196;-62
2023/08/31 04:03:26;;;;;;;;;;;;;;;27.32;42.86;93893.50;5007223;28;8564;-61
2023/08/31 04:06:47;;;;;;;;;;;;;;;27.35;43.13;93901.50;5001867;28;9894;-64
2023/08/31 04:09:14;;;;;;;;;;;;;;;27.32;43.14;93904.53;4995184;28;7209;-63
2023/08/31 04:12:07;;;;;;;;;;;;;;;27.35;42.95;93909.00;4989330;28;7420;-63
2023/08/31 04:14:42;;;;;;;;;;;;;;;27.39;42.86;93903.91;4978384;28;8722;-63
2023/08/31 04:17:12;;;;;;;;;;;;;;;27.39;42.91;93906.69;4956566;28;8211;-63
2023/08/31 04:19:38;;;;;;;;;;;;;;;27.39;42.86;93899.16;4969621;28;7246;-63
2023/08/31 04:22:14;;;;;;;;;;;;;;;27.39;42.97;93904.66;4963181;28;9228;-63
2023/08/31 04:24:48;;;;;;;;;;;;;;;27.39;43.02;93910.19;4980431;28;6997;-63
2023/08/31 04:27:45;;;;;;;;;;;;;;;27.39;42.73;93912.97;4996388;28;9353;-62
2023/08/31 04:30:19;;;;;;;;;;;;;;;27.40;42.92;93916.47;4928372;29;7320;-62
2023/08/31 04:32:50;;;;;;;;;;;;;;;27.39;42.72;93920.50;4930183;29;7008;-63
2023/08/31 04:35:54;;;;;;;;;;;;;;;27.40;42.93;93928.25;4927443;29;6989;-62
2023/08/31 04:38:41;;;;;;;;;;;;;;;27.38;42.85;93924.53;4907055;29;7264;-63
2023/08/31 04:41:27;;;;;;;;;;;;;;;27.40;42.95;93933.03;4926390;29;8305;-63
2023/08/31 04:44:03;;;;;;;;;;;;;;;27.38;43.23;93941.84;4917433;29;9043;-63
2023/08/31 04:46:30;;;;;;;;;;;;;;;27.38;42.89;93947.38;4923138;29;8734;-63
2023/08/31 04:48:58;;;;;;;;;;;;;;;27.37;43.18;93939.63;4915157;29;7541;-63
2023/08/31 04:51:34;;;;;;;;;;;;;;;27.36;42.87;93941.63;4946127;28;9111;-63
2023/08/31 04:54:01;;;;;;;;;;;;;;;27.36;43.20;93954.72;4964544;28;8292;-63
2023/08/31 04:56:33;;;;;;;;;;;;;;;27.36;42.85;93949.91;4949897;28;8152;-63
2023/08/31 04:59:00;;;;;;;;;;;;;;;27.36;43.16;93949.91;4964713;28;9030;-63
2023/08/31 05:01:26;;;;;;;;;;;;;;;27.37;43.24;93947.91;4968514;28;7321;-63
2023/08/31 05:03:54;;;;;;;;;;;;;;;27.36;43.20;93949.91;4970821;28;7240;-63
2023/08/31 05:06:22;;;;;;;;;;;;;;;27.36;43.20;93957.47;4989215;28;9048;-63
2023/08/31 05:08:48;;;;;;;;;;;;;;;27.36;43.25;93963.00;5048237;28;10563;-64
2023/08/31 05:11:30;;;;;;;;;;;;;;;27.37;43.33;93968.00;5059745;28;7089;-64
2023/08/31 05:13:56;;;;;;;;;;;;;;;27.31;43.64;93963.81;5043250;28;7070;-63
2023/08/31 05:16:36;;;;;;;;;;;;;;;27.31;43.94;93981.13;5036792;28;7174;-62
2023/08/31 05:19:05;;;;;;;;;;;;;;;27.32;44.15;93979.09;5062546;28;8805;-62
2023/08/31 05:21:40;;;;;;;;;;;;;;;27.28;43.86;93979.44;5039289;28;8667;-63
2023/08/31 05:24:06;;;;;;;;;;;;;;;27.29;44.17;93982.94;5057928;28;7237;-62
2023/08/31 05:27:04;;;;;;;;;;;;;;;27.27;44.30;93979.97;5057717;28;6977;-62
2023/08/31 05:29:41;;;;;;;;;;;;;;;27.26;45.56;93981.97;5000838;28;9758;-61
2023/08/31 05:32:10;;;;;;;;;;;;;;;27.28;44.38;93990.47;5028407;28;7226;-61
2023/08/31 05:34:45;;;;;;;;;;;;;;;27.25;43.89;93999.81;5009383;28;9392;-61
2023/08/31 05:37:14;;;;;;;;;;;;;;;27.25;44.18;93994.28;5012079;28;9129;-62
2023/08/31 05:39:57;;;;;;;;;;;;;;;27.26;43.95;94000.56;5020575;28;8784;-61
2023/08/31 05:42:26;;;;;;;;;;;;;;;27.25;43.60;94004.59;5004011;28;7417;-61
2023/08/31 05:45:05;;;;;;;;;;;;;;;27.24;43.49;94009.38;5021071;28;9502;-61
2023/08/31 05:47:41;;;;;;;;;;;;;;;27.24;43.38;94003.84;5023693;28;7220;-61
2023/08/31 05:50:21;;;;;;;;;;;;;;;27.23;43.52;94002.38;5005385;28;6913;-61
2023/08/31 05:52:52;;;;;;;;;;;;;;;27.22;43.61;94011.94;5015081;28;9102;-61
2023/08/31 05:55:19;;;;;;;;;;;;;;;27.21;43.35;94021.47;5015062;28;7277;-61
2023/08/31 05:57:47;;;;;;;;;;;;;;;27.19;43.73;94021.25;5019135;28;7267;-62
2023/08/31 06:00:23;;;;;;;;;;;;;;;27.20;43.33;94022.78;5014825;28;9272;-61
2023/08/31 06:03:20;;;;;;;;;;;;;;;27.22;43.44;94025.00;5025356;28;7240;-61
2023/08/31 06:05:46;;;;;;;;;;;;;;;27.21;43.54;94035.28;4970104;28;9091;-61
2023/08/31 06:08:12;;;;;;;;;;;;;;;27.21;43.92;94054.63;4951864;28;7089;-61
2023/08/31 06:10:54;;;;;;;;;;;;;;;27.19;43.42;94034.31;4958628;28;7168;-61
2023/08/31 06:13:25;;;;;;;;;;;;;;;27.19;43.56;94043.34;4972827;28;7013;-62
2023/08/31 06:16:05;;;;;;;;;;;;;;;27.20;43.44;94055.16;4967254;28;7360;-61
2023/08/31 06:18:46;;;;;;;;;;;;;;;27.20;43.82;94042.09;4957208;28;7011;-62
2023/08/31 06:21:22;;;;;;;;;;;;;;;27.22;43.42;94044.31;4973689;28;7262;-61
2023/08/31 06:23:56;;;;;;;;;;;;;;;27.25;43.49;94048.78;4961155;28;7256;-61
2023/08/31 06:26:33;;;;;;;;;;;;;;;27.24;43.41;94048.03;4956984;28;7219;-61
2023/08/31 06:29:10;;;;;;;;;;;;;;;27.22;43.39;94053.34;4955807;28;7411;-61
2023/08/31 06:32:14;;;;;;;;;;;;;;;27.21;43.58;94053.88;4970246;28;8340;-62
2023/08/31 06:34:49;;;;;;;;;;;;;;;27.20;43.67;94053.13;4966402;28;6989;-61
2023/08/31 06:37:16;;;;;;;;;;;;;;;27.21;43.52;94054.63;4947684;28;7005;-61
2023/08/31 06:39:54;;;;;;;;;;;;;;;27.19;43.57;94051.63;4949383;28;9245;-61
2023/08/31 06:42:20;;;;;;;;;;;;;;;27.18;43.39;94052.94;5009052;28;9107;-61
2023/08/31 06:44:48;;;;;;;;;;;;;;;27.19;43.55;94054.41;5045371;28;7396;-61
2023/08/31 06:47:17;;;;;;;;;;;;;;;27.20;43.59;94049.63;5062615;28;7270;-61
2023/08/31 06:49:43;;;;;;;;;;;;;;;27.18;43.76;94061.22;5049828;28;9483;-62
2023/08/31 06:52:09;;;;;;;;;;;;;;;27.19;43.49;94057.16;5050990;28;9584;-62
2023/08/31 06:54:37;;;;;;;;;;;;;;;27.20;43.76;94060.66;5053102;28;7324;-61
2023/08/31 06:57:37;;;;;;;;;;;;;;;27.19;43.53;94059.16;5046500;28;7061;-61
2023/08/31 07:00:14;;;;;;;;;;;;;;;27.18;43.10;94060.47;5064205;28;9408;-61
2023/08/31 07:03:07;;;;;;;;;;;;;;;27.17;43.58;94065.22;5055147;28;8649;-61
2023/08/31 07:05:37;;;;;;;;;;;;;;;27.16;43.73;94072.03;5027313;28;7186;-61
2023/08/31 07:08:12;;;;;;;;;;;;;;;27.17;43.28;94078.28;5008718;28;7196;-60
2023/08/31 07:10:54;;;;;;;;;;;;;;;27.17;44.09;94086.56;5030689;28;9082;-61
2023/08/31 07:13:57;;;;;;;;;;;;;;;27.17;43.45;94087.31;5010285;28;7572;-61
2023/08/31 07:16:56;;;;;;;;;;;;;;;27.18;43.53;94086.06;5027087;28;7077;-61
2023/08/31 07:19:49;;;;;;;;;;;;;;;27.18;43.73;94093.59;4973530;28;9495;-61
2023/08/31 07:22:18;;;;;;;;;;;;;;;27.17;43.70;94094.84;4957905;28;7273;-61
2023/08/31 07:24:46;;;;;;;;;;;;;;;27.16;43.71;94096.88;4954850;28;8294;-61
2023/08/31 07:27:23;;;;;;;;;;;;;;;27.17;43.41;94086.56;4979109;28;7100;-61
2023/08/31 07:29:50;;;;;;;;;;;;;;;27.16;43.69;94080.31;4974651;28;8878;-60
2023/08/31 07:32:27;;;;;;;;;;;;;;;27.15;43.62;94073.31;4966739;28;6995;-61
2023/08/31 07:35:27;;;;;;;;;;;;;;;27.17;43.66;94084.56;4974019;28;7267;-61
2023/08/31 07:38:06;;;;;;;;;;;;;;;27.16;43.79;94096.13;4910708;29;7204;-61
2023/08/31 07:40:34;;;;;;;;;;;;;;;27.16;43.71;94102.41;4916003;29;7228;-61
2023/08/31 07:43:15;;;;;;;;;;;;;;;27.18;43.58;94116.44;4915146;29;8782;-61
2023/08/31 07:45:57;;;;;;;;;;;;;;;27.17;43.81;94120.44;4916524;29;9112;-61
2023/08/31 07:48:24;;;;;;;;;;;;;;;27.16;43.86;94115.47;4942934;28;7019;-61
2023/08/31 07:50:52;;;;;;;;;;;;;;;27.13;43.53;94122.78;4917732;29;7238;-62
2023/08/31 07:53:25;;;;;;;;;;;;;;;27.15;43.41;94116.72;4931887;28;7509;-61
2023/08/31 07:55:54;;;;;;;;;;;;;;;27.14;43.68;94113.25;4993440;28;7486;-61
2023/08/31 07:58:21;;;;;;;;;;;;;;;27.16;43.65;94127.25;4992318;28;7599;-61
2023/08/31 08:00:58;;;;;;;;;;;;;;;27.15;43.52;94133.28;5000355;28;7259;-61
2023/08/31 08:03:25;;;;;;;;;;;;;;;27.13;43.13;94127.56;4988824;28;7477;-61
2023/08/31 08:05:51;;;;;;;;;;;;;;;27.17;43.63;94137.03;4990024;28;9080;-61
2023/08/31 08:08:17;;;;;;;;;;;;;;;27.17;44.12;94134.25;4999957;28;7197;-61
2023/08/31 08:10:45;;;;;;;;;;;;;;;27.15;43.60;94128.53;4992601;28;9173;-61
2023/08/31 08:13:11;;;;;;;;;;;;;;;27.14;43.54;94138.09;5010449;28;7063;-61
2023/08/31 08:15:41;;;;;;;;;;;;;;;27.16;43.66;94134.78;5056421;28;7267;-61
2023/08/31 08:18:09;;;;;;;;;;;;;;;27.12;43.36;94137.84;5042315;28;9573;-61
2023/08/31 08:20:37;;;;;;;;;;;;;;;27.16;43.68;94143.06;5054920;28;7355;-61
2023/08/31 08:23:14;;;;;;;;;;;;;;;27.14;43.38;94142.84;5047216;28;7377;-62
2023/08/31 08:25:43;;;;;;;;;;;;;;;27.16;43.00;94148.59;5042285;28;7254;-61
2023/08/31 08:28:25;;;;;;;;;;;;;;;27.15;43.41;94147.84;5053284;28;8160;-60
2023/08/31 08:31:11;;;;;;;;;;;;;;;27.17;43.43;94153.59;5062749;28;9044;-61
2023/08/31 08:33:53;;;;;;;;;;;;;;;27.15;43.59;94158.13;5052816;28;7164;-62
2023/08/31 08:36:25;;;;;;;;;;;;;;;27.16;43.37;94163.16;5042202;28;6872;-61
2023/08/31 08:38:54;;;;;;;;;;;;;;;27.19;43.62;94162.09;5046028;28;7309;-61
2023/08/31 08:41:52;;;;;;;;;;;;;;;27.19;43.61;94162.09;5042882;28;7584;-61
2023/08/31 08:44:34;;;;;;;;;;;;;;;27.18;43.31;94159.84;4969767;28;7433;-61
2023/08/31 08:47:51;;;;;;;;;;;;;;;27.21;43.23;94167.09;4973518;28;7443;-62
2023/08/31 08:50:21;;;;;;;;;;;;;;;27.20;43.18;94163.59;4914645;29;8401;-61
2023/08/31 08:52:47;;;;;;;;;;;;;;;27.19;43.62;94167.59;4898392;29;7779;-61
2023/08/31 08:55:18;;;;;;;;;;;;;;;27.20;43.62;94173.88;4913872;29;8831;-61
2023/08/31 08:57:47;;;;;;;;;;;;;;;27.22;43.43;94172.09;4911470;29;7036;-61
2023/08/31 09:00:34;;;;;;;;;;;;;;;27.22;43.21;94180.38;4896880;29;9060;-61
2023/08/31 09:03:09;;;;;;;;;;;;;;;27.23;43.35;94176.31;4896342;29;6886;-61
2023/08/31 09:05:36;;;;;;;;;;;;;;;27.24;43.46;94180.59;4913613;29;7263;-62
2023/08/31 09:08:26;;;;;;;;;;;;;;;27.23;42.86;94181.13;4912570;29;7036;-62
2023/08/31 09:10:57;;;;;;;;;;;;;;;27.20;43.04;94182.91;4884275;29;7066;-62
2023/08/31 09:13:31;;;;;;;;;;;;;;;27.22;43.41;94177.59;4909637;29;7258;-62
2023/08/31 09:16:25;;;;;;;;;;;;;;;27.23;43.39;94184.59;4910689;29;7091;-62
2023/08/31 09:19:21;;;;;;;;;;;;;;;27.22;43.45;94191.41;4910859;29;7158;-61
2023/08/31 09:22:00;;;;;;;;;;;;;;;27.22;43.32;94185.13;4967842;28;6998;-62
2023/08/31 09:24:29;;;;;;;;;;;;;;;27.20;43.06;94188.44;4987987;28;9133;-61
2023/08/31 09:27:25;;;;;;;;;;;;;;;27.20;43.44;94182.91;5027815;28;7448;-62
2023/08/31 09:30:24;;;;;;;;;;;;;;;27.20;43.21;94191.19;5008626;28;9010;-62
2023/08/31 09:33:22;;;;;;;;;;;;;;;27.20;43.09;94179.41;4977843;28;8725;-61
2023/08/31 09:36:01;;;;;;;;;;;;;;;27.16;43.26;94179.72;4907045;29;9579;-61
2023/08/31 09:38:58;;;;;;;;;;;;;;;27.19;43.06;94186.19;4888575;29;6933;-61
2023/08/31 09:41:59;;;;;;;;;;;;;;;27.22;43.12;94180.38;4894259;29;7517;-62
2023/08/31 09:44:44;;;;;;;;;;;;;;;27.23;43.25;94179.09;4826920;29;9109;-61
2023/08/31 09:47:28;;;;;;;;;;;;;;;27.26;43.23;94175.28;4821505;29;7333;-61
2023/08/31 09:50:11;;;;;;;;;;;;;;;27.27;43.17;94189.84;4821958;29;7224;-61
2023/08/31 09:52:47;;;;;;;;;;;;;;;27.26;43.35;94193.84;4839553;29;7246;-61
2023/08/31 09:55:46;;;;;;;;;;;;;;;27.26;43.21;94189.09;4838218;29;9379;-61
2023/08/31 09:58:38;;;;;;;;;;;;;;;27.25;43.20;94189.63;4818386;29;7203;-61
2023/08/31 10:01:11;;;;;;;;;;;;;;;27.26;43.05;94175.28;4817966;29;7228;-61
2023/08/31 10:03:37;;;;;;;;;;;;;;;27.26;43.00;94169.75;4839886;29;9161;-61
2023/08/31 10:06:07;;;;;;;;;;;;;;;27.27;43.07;94176.78;4840863;29;7250;-61
2023/08/31 10:08:44;;;;;;;;;;;;;;;27.29;43.00;94174.22;4854578;29;9049;-61
2023/08/31 10:11:14;;;;;;;;;;;;;;;27.29;43.34;94170.72;4908277;28;8660;-61
2023/08/31 10:13:43;;;;;;;;;;;;;;;27.27;43.52;94179.53;4955987;28;9097;-61
2023/08/31 10:16:19;;;;;;;;;;;;;;;27.26;43.02;94172.50;4969927;28;7278;-62
2023/08/31 10:19:05;;;;;;;;;;;;;;;27.29;43.30;94170.72;4970192;28;7043;-61
2023/08/31 10:21:40;;;;;;;;;;;;;;;27.26;43.34;94172.50;5041281;28;7231;-61
2023/08/31 10:24:09;;;;;;;;;;;;;;;27.25;43.43;94171.00;5037548;28;7202;-61
2023/08/31 10:26:50;;;;;;;;;;;;;;;27.21;43.40;94175.38;5043915;28;9130;-61
2023/08/31 10:29:53;;;;;;;;;;;;;;;27.22;43.15;94172.09;5047883;28;9088;-61
2023/08/31 10:33:07;;;;;;;;;;;;;;;27.23;43.35;94168.03;5010120;28;9395;-62
2023/08/31 10:35:59;;;;;;;;;;;;;;;27.24;43.13;94175.06;4969439;28;9079;-61
2023/08/31 10:38:32;;;;;;;;;;;;;;;27.23;43.33;94181.13;4968828;28;6934;-61
2023/08/31 10:41:15;;;;;;;;;;;;;;;27.25;42.64;94184.81;4971823;28;9055;-61
2023/08/31 10:43:46;;;;;;;;;;;;;;;27.24;43.14;94183.34;4958986;28;7523;-61
2023/08/31 10:46:34;;;;;;;;;;;;;;;27.24;42.94;94175.06;4965465;28;7270;-61
2023/08/31 10:49:14;;;;;;;;;;;;;;;27.27;43.04;94176.78;4958435;28;7058;-61
2023/08/31 10:52:17;;;;;;;;;;;;;;;27.26;43.09;94175.28;4971522;28;7247;-61
2023/08/31 10:54:48;;;;;;;;;;;;;;;27.24;43.19;94179.84;4915236;29;7276;-61
2023/08/31 10:57:35;;;;;;;;;;;;;;;27.25;42.93;94178.56;4904601;29;7266;-61
2023/08/31 11:00:39;;;;;;;;;;;;;;;27.25;42.82;94173.78;4915298;29;9016;-61
2023/08/31 11:03:06;;;;;;;;;;;;;;;27.22;43.08;94161.03;4892297;29;7298;-61
2023/08/31 11:05:53;;;;;;;;;;;;;;;27.25;42.94;94170.28;4910674;29;7336;-61
2023/08/31 11:08:36;;;;;;;;;;;;;;;27.22;42.96;94161.03;4934082;29;7192;-61
2023/08/31 11:11:04;;;;;;;;;;;;;;;27.22;42.98;94172.09;4928244;28;7268;-61
2023/08/31 11:13:45;;;;;;;;;;;;;;;27.22;42.81;94160.28;4974177;28;8182;-60
2023/08/31 11:16:31;;;;;;;;;;;;;;;27.29;42.74;94165.94;4985793;28;7248;-61
2023/08/31 11:19:10;;;;;;;;;;;;;;;27.33;42.45;94168.38;4960677;28;9380;-61
2023/08/31 11:21:47;;;;;;;;;;;;;;;27.35;42.80;94168.59;4973476;28;9325;-62
2023/08/31 11:24:30;;;;;;;;;;;;;;;27.34;42.42;94167.84;4965612;28;7210;-61
2023/08/31 11:27:08;;;;;;;;;;;;;;;27.38;42.66;94162.78;4976919;28;7073;-62
2023/08/31 11:30:01;;;;;;;;;;;;;;;27.43;42.61;94161.97;5030214;28;7012;-62
2023/08/31 11:32:37;;;;;;;;;;;;;;;27.47;42.34;94176.19;4982191;28;7294;-62
2023/08/31 11:35:07;;;;;;;;;;;;;;;27.48;42.51;94166.66;4992573;28;9092;-62
2023/08/31 11:37:47;;;;;;;;;;;;;;;27.50;42.61;94172.38;5000318;28;7306;-62
2023/08/31 11:40:32;;;;;;;;;;;;;;;27.53;42.05;94170.59;4988469;28;9145;-62
2023/08/31 11:43:00;;;;;;;;;;;;;;;27.53;42.22;94163.03;4999113;28;9278;-61
2023/08/31 11:45:41;;;;;;;;;;;;;;;27.52;42.37;94158.78;4997598;28;7272;-62
2023/08/31 11:48:31;;;;;;;;;;;;;;;27.53;42.18;94165.78;5001436;28;7315;-61
2023/08/31 11:51:22;;;;;;;;;;;;;;;27.56;42.27;94169.50;4979336;28;9138;-61
2023/08/31 11:54:17;;;;;;;;;;;;;;;27.55;42.16;94166.03;4970522;28;7194;-62
2023/08/31 11:56:58;;;;;;;;;;;;;;;27.57;41.81;94173.78;4998821;28;7242;-62
2023/08/31 11:59:36;;;;;;;;;;;;;;;27.57;42.13;94171.03;5012020;28;7190;-62
2023/08/31 12:02:15;;;;;;;;;;;;;;;27.59;42.29;94176.75;4981129;28;7036;-61
2023/08/31 12:05:01;;;;;;;;;;;;;;;27.57;42.33;94171.78;5000740;28;9499;-61
2023/08/31 12:08:05;;;;;;;;;;;;;;;27.58;42.14;94178.78;5011008;28;7422;-61
2023/08/31 12:10:41;;;;;;;;;;;;;;;27.56;42.52;94175.03;5022310;28;7093;-61
2023/08/31 12:13:40;;;;;;;;;;;;;;;27.58;41.72;94172.50;5023839;28;7334;-61
2023/08/31 12:16:17;;;;;;;;;;;;;;;27.58;42.07;94178.78;5039726;28;7862;-62
2023/08/31 12:18:43;;;;;;;;;;;;;;;27.57;42.06;94174.53;5015138;28;7284;-62
2023/08/31 12:21:11;;;;;;;;;;;;;;;27.58;41.78;94186.31;5026797;28;9050;-62
2023/08/31 12:24:03;;;;;;;;;;;;;;;27.55;42.30;94176.34;5029222;28;9121;-62
2023/08/31 12:26:39;;;;;;;;;;;;;;;27.56;42.22;94183.34;5019365;28;7069;-62
2023/08/31 12:29:22;;;;;;;;;;;;;;;27.56;42.00;94186.84;5028330;28;9226;-62
2023/08/31 12:31:50;;;;;;;;;;;;;;;27.57;42.25;94184.84;5033143;28;7181;-62
2023/08/31 12:34:17;;;;;;;;;;;;;;;27.54;42.35;94172.81;5043085;28;9335;-62
2023/08/31 12:36:45;;;;;;;;;;;;;;;27.54;42.99;94186.63;5049748;28;7077;-62
2023/08/31 12:39:16;;;;;;;;;;;;;;;27.54;42.05;94189.41;5049751;28;7649;-62
2023/08/31 12:41:59;;;;;;;;;;;;;;;27.51;42.25;94184.19;5055665;28;8428;-64
2023/08/31 12:44:28;;;;;;;;;;;;;;;27.55;42.11;94181.84;5045548;28;7360;-62
2023/08/31 12:46:54;;;;;;;;;;;;;;;27.56;42.31;94183.34;5060048;28;6988;-62
2023/08/31 12:49:22;;;;;;;;;;;;;;;27.57;42.05;94177.28;5046600;28;7050;-62
2023/08/31 12:51:53;;;;;;;;;;;;;;;27.58;42.07;94176.00;5044293;28;7765;-64
2023/08/31 12:54:19;;;;;;;;;;;;;;;27.55;42.05;94168.78;5046432;28;9154;-62
2023/08/31 12:56:48;;;;;;;;;;;;;;;27.60;41.98;94167.19;5055483;28;7237;-62
2023/08/31 12:59:16;;;;;;;;;;;;;;;27.60;42.20;94165.16;5043769;28;8551;-62
2023/08/31 13:01:42;;;;;;;;;;;;;;;27.60;42.16;94153.38;5045788;28;7241;-62
2023/08/31 13:04:08;;;;;;;;;;;;;;;27.62;41.86;94156.38;5055900;28;7060;-62
2023/08/31 13:06:44;;;;;;;;;;;;;;;27.63;42.13;94172.41;5039263;28;7255;-63
2023/08/31 13:09:13;;;;;;;;;;;;;;;27.63;41.90;94172.41;5042138;28;7383;-63
2023/08/31 13:11:45;;;;;;;;;;;;;;;27.62;42.10;94176.44;5067083;28;7221;-62
2023/08/31 13:14:16;;;;;;;;;;;;;;;27.57;42.02;94168.25;5043710;28;8749;-63
2023/08/31 13:16:44;;;;;;;;;;;;;;;27.54;42.30;94174.81;5043259;28;9101;-62
2023/08/31 13:19:40;;;;;;;;;;;;;;;27.47;42.16;94162.38;5054376;28;7538;-62
2023/08/31 13:22:25;;;;;;;;;;;;;;;27.52;42.14;94175.38;5011027;28;9361;-62
2023/08/31 13:25:00;;;;;;;;;;;;;;;27.53;42.44;94167.81;5014350;28;8994;-61
2023/08/31 13:27:33;;;;;;;;;;;;;;;27.51;42.18;94165.56;5004594;28;7471;-61
2023/08/31 13:30:01;;;;;;;;;;;;;;;27.52;42.52;94167.06;5017743;28;9087;-62
2023/08/31 13:32:36;;;;;;;;;;;;;;;27.51;42.41;94171.09;5013245;28;9631;-62
2023/08/31 13:35:07;;;;;;;;;;;;;;;27.51;41.96;94168.34;5010400;28;7069;-62
2023/08/31 13:37:40;;;;;;;;;;;;;;;27.47;42.55;94154.09;5005617;28;7450;-60
2023/08/31 13:40:33;;;;;;;;;;;;;;;27.48;42.25;94150.06;5026417;28;8793;-60
2023/08/31 13:43:08;;;;;;;;;;;;;;;27.47;42.47;94156.88;5004633;28;7217;-60
2023/08/31 13:45:34;;;;;;;;;;;;;;;27.52;42.23;94158.78;5016369;28;9598;-60
2023/08/31 13:48:10;;;;;;;;;;;;;;;27.54;42.32;94155.50;5024080;28;7078;-60
2023/08/31 13:50:41;;;;;;;;;;;;;;;27.53;42.40;94160.25;5015381;28;9098;-60
2023/08/31 13:53:24;;;;;;;;;;;;;;;27.50;42.20;94158.56;5026184;28;7380;-60
2023/08/31 13:56:19;;;;;;;;;;;;;;;27.47;42.14;94159.63;5003730;28;7213;-60